Time;durP1;ratioP1;P1;durP2;ratioP2;P2;SDS_P1;SDS_P2;PMS_P1;PMS_P2;Temp;Humidity;BMP_temperature;BMP_pressure;BME280_temperature;BME280_humidity;BME280_pressure;Samples;Min_cycle;Max_cycle;Signal;HPM_P1;HPM_P2
2023/08/07 00:01:00;;;;;;;;;;;;;;;12.53;100.00;101201.13;5036648;28;1130;-74
2023/08/07 00:03:26;;;;;;;;;;;;;;;12.59;100.00;101199.81;5036415;28;1158;-74
2023/08/07 00:05:51;;;;;;;;;;;;;;;12.55;100.00;101199.22;5037569;28;1144;-75
2023/08/07 00:08:17;;;;;;;;;;;;;;;12.79;100.00;101201.56;5033735;28;1977;-75
2023/08/07 00:10:42;;;;;;;;;;;;;;;12.56;100.00;101198.28;5034034;28;1181;-74
2023/08/07 00:13:07;;;;;;;;;;;;;;;12.55;100.00;101198.41;5038245;28;1164;-74
2023/08/07 00:15:33;;;;;;;;;;;;;;;12.52;100.00;101194.28;5033270;28;1232;-74
2023/08/07 00:17:58;;;;;;;;;;;;;;;12.52;100.00;101194.28;5040753;28;1010;-74
2023/08/07 00:20:24;;;;;;;;;;;;;;;12.82;100.00;101195.25;5032644;28;1226;-75
2023/08/07 00:22:49;;;;;;;;;;;;;;;12.65;100.00;101197.50;5035647;28;1192;-74
2023/08/07 00:25:14;;;;;;;;;;;;;;;12.56;100.00;101200.91;5035589;28;1099;-74
2023/08/07 00:27:39;;;;;;;;;;;;;;;12.72;100.00;101196.03;5035432;28;985;-75
2023/08/07 00:30:05;;;;;;;;;;;;;;;12.59;100.00;101195.41;5027232;28;1971;-74
2023/08/07 00:32:30;;;;;;;;;;;;;;;12.60;100.00;101194.47;5034703;28;1064;-74
2023/08/07 00:34:55;;;;;;;;;;;;;;;12.65;100.00;101200.09;5036786;28;1074;-74
2023/08/07 00:37:20;;;;;;;;;;;;;;;12.58;100.00;101196.38;5037782;28;1092;-74
2023/08/07 00:39:45;;;;;;;;;;;;;;;12.59;100.00;101205.81;5031688;28;1167;-74
2023/08/07 00:42:11;;;;;;;;;;;;;;;12.64;100.00;101201.06;5043960;28;1150;-74
2023/08/07 00:44:36;;;;;;;;;;;;;;;12.62;100.00;101202.97;5041794;28;1115;-74
2023/08/07 00:47:01;;;;;;;;;;;;;;;12.63;100.00;101204.63;5040267;28;1074;-74
2023/08/07 00:49:27;;;;;;;;;;;;;;;12.62;100.00;101189.97;5042008;28;1922;-76
2023/08/07 00:51:52;;;;;;;;;;;;;;;12.79;100.00;101195.50;5038908;28;940;-74
2023/08/07 00:54:19;;;;;;;;;;;;;;;12.65;100.00;101200.09;5039413;28;986;-74
2023/08/07 00:56:44;;;;;;;;;;;;;;;12.66;100.00;101195.72;5040032;28;1135;-74
2023/08/07 00:59:10;;;;;;;;;;;;;;;12.68;100.00;101204.25;5036592;28;1197;-74
2023/08/07 01:01:36;;;;;;;;;;;;;;;12.70;100.00;101199.72;5040883;28;1115;-74
2023/08/07 01:04:01;;;;;;;;;;;;;;;12.88;100.00;101205.13;5038736;28;1455;-74
2023/08/07 01:06:26;;;;;;;;;;;;;;;12.70;100.00;101203.16;5042943;28;963;-75
2023/08/07 01:08:52;;;;;;;;;;;;;;;12.74;100.00;101214.94;5034174;28;1898;-75
2023/08/07 01:11:35;;;;;;;;;;;;;;;12.81;100.00;101209.22;5034485;28;1149;-74
2023/08/07 01:14:05;;;;;;;;;;;;;;;12.67;100.00;101213.81;5037324;28;1111;-74
2023/08/07 01:16:46;;;;;;;;;;;;;;;12.68;100.00;101220.69;5032037;28;1154;-74
2023/08/07 01:19:19;;;;;;;;;;;;;;;12.66;100.00;101217.38;5032929;28;1092;-74
2023/08/07 01:21:45;;;;;;;;;;;;;;;12.71;100.00;101225.59;5041712;28;1121;-74
2023/08/07 01:24:10;;;;;;;;;;;;;;;12.65;100.00;101218.31;5034347;28;1097;-74
2023/08/07 01:26:37;;;;;;;;;;;;;;;12.66;100.00;101232.97;5033254;28;963;-75
2023/08/07 01:29:09;;;;;;;;;;;;;;;12.63;100.00;101233.25;5025411;28;1983;-74
2023/08/07 01:31:36;;;;;;;;;;;;;;;12.70;100.00;101223.97;5033847;28;1142;-74
2023/08/07 01:34:03;;;;;;;;;;;;;;;12.68;100.00;101227.66;5038669;28;1099;-74
2023/08/07 01:36:29;;;;;;;;;;;;;;;12.67;100.00;101221.63;5031937;28;1290;-75
2023/08/07 01:38:56;;;;;;;;;;;;;;;12.63;100.00;101243.66;5030355;28;1261;-74
2023/08/07 01:41:22;;;;;;;;;;;;;;;12.67;100.00;101232.03;5039398;28;1169;-75
2023/08/07 01:43:47;;;;;;;;;;;;;;;12.67;100.00;101231.19;5042445;28;1154;-74
2023/08/07 01:46:12;;;;;;;;;;;;;;;12.66;100.00;101227.78;5039914;28;984;-74
2023/08/07 01:48:37;;;;;;;;;;;;;;;12.62;100.00;101221.19;5046176;28;1961;-75
2023/08/07 01:51:02;;;;;;;;;;;;;;;12.61;100.00;101235.13;5044805;28;1121;-74
2023/08/07 01:53:28;;;;;;;;;;;;;;;12.66;100.00;101232.97;5046568;28;1110;-75
2023/08/07 01:55:53;;;;;;;;;;;;;;;12.65;100.00;101241.75;5044382;28;1050;-74
2023/08/07 01:58:18;;;;;;;;;;;;;;;12.65;100.00;101227.91;5042044;28;1160;-74
2023/08/07 02:00:43;;;;;;;;;;;;;;;12.59;100.00;101244.84;5041166;28;1139;-74
2023/08/07 02:03:08;;;;;;;;;;;;;;;12.61;100.00;101240.34;5043972;28;1135;-74
2023/08/07 02:05:34;;;;;;;;;;;;;;;12.63;100.00;101238.44;5040702;28;1107;-75
2023/08/07 02:07:59;;;;;;;;;;;;;;;12.60;100.00;101236.09;5040773;28;1074;-74
2023/08/07 02:10:25;;;;;;;;;;;;;;;12.71;100.00;101241.22;5039993;28;1955;-75
2023/08/07 02:12:50;;;;;;;;;;;;;;;12.68;100.00;101244.09;5039676;28;1082;-74
2023/08/07 02:15:15;;;;;;;;;;;;;;;12.67;100.00;101250.25;5042196;28;1074;-75
2023/08/07 02:17:41;;;;;;;;;;;;;;;12.60;100.00;101249.09;5033424;28;1272;-74
2023/08/07 02:20:06;;;;;;;;;;;;;;;12.62;100.00;101252.41;5036018;28;1208;-74
2023/08/07 02:22:31;;;;;;;;;;;;;;;12.55;100.00;101246.06;5032766;28;1180;-74
2023/08/07 02:24:57;;;;;;;;;;;;;;;12.50;100.00;101258.63;5043159;28;1120;-74
2023/08/07 02:27:22;;;;;;;;;;;;;;;12.60;100.00;101248.28;5037206;28;1118;-74
2023/08/07 02:29:47;;;;;;;;;;;;;;;12.50;100.00;101263.81;5033147;28;1957;-75
2023/08/07 02:32:12;;;;;;;;;;;;;;;12.48;100.00;101255.34;5039841;28;1082;-75
2023/08/07 02:34:37;;;;;;;;;;;;;;;12.50;100.00;101253.41;5048334;28;1078;-75
2023/08/07 02:37:03;;;;;;;;;;;;;;;12.47;100.00;101254.50;5039819;28;1131;-74
2023/08/07 02:39:28;;;;;;;;;;;;;;;12.48;100.00;101256.16;5038406;28;1107;-75
2023/08/07 02:41:53;;;;;;;;;;;;;;;12.49;100.00;101262.19;5041882;28;1143;-75
2023/08/07 02:44:19;;;;;;;;;;;;;;;12.54;100.00;101257.41;5049697;28;1111;-75
2023/08/07 02:46:45;;;;;;;;;;;;;;;12.51;100.00;101254.28;5041638;28;1165;-74
2023/08/07 02:49:10;;;;;;;;;;;;;;;12.51;100.00;101249.88;5042467;28;1890;-75
2023/08/07 02:51:35;;;;;;;;;;;;;;;12.58;100.00;101251.03;5043375;28;1135;-74
2023/08/07 02:54:00;;;;;;;;;;;;;;;12.55;100.00;101250.44;5040100;28;1057;-74
2023/08/07 02:56:26;;;;;;;;;;;;;;;12.54;100.00;101260.03;5045354;28;1087;-73
2023/08/07 02:58:51;;;;;;;;;;;;;;;12.60;100.00;101246.50;5043248;28;962;-75
2023/08/07 03:01:16;;;;;;;;;;;;;;;12.52;100.00;101256.72;5043440;28;1082;-75
2023/08/07 03:03:41;;;;;;;;;;;;;;;12.54;100.00;101254.81;5041354;28;1187;-74
2023/08/07 03:06:06;;;;;;;;;;;;;;;12.52;100.00;101251.53;5036509;28;1240;-74
2023/08/07 03:08:32;;;;;;;;;;;;;;;12.55;100.00;101251.25;5042453;28;1893;-74
2023/08/07 03:10:57;;;;;;;;;;;;;;;12.52;100.00;101246.31;5039060;28;1154;-76
2023/08/07 03:13:23;;;;;;;;;;;;;;;12.56;100.00;101241.69;5038251;28;1101;-74
2023/08/07 03:15:50;;;;;;;;;;;;;;;12.55;100.00;101246.06;5034334;28;1139;-74
2023/08/07 03:18:16;;;;;;;;;;;;;;;12.57;100.00;101249.38;5033850;28;1093;-74
2023/08/07 03:20:41;;;;;;;;;;;;;;;12.59;100.00;101247.47;5036129;28;1066;-76
2023/08/07 03:23:06;;;;;;;;;;;;;;;12.65;100.00;101246.94;5036410;28;1041;-73
2023/08/07 03:25:32;;;;;;;;;;;;;;;12.69;100.00;101243.16;5034302;28;1100;-74
2023/08/07 03:27:57;;;;;;;;;;;;;;;12.64;100.00;101240.09;5043412;28;1130;-73
2023/08/07 03:30:22;;;;;;;;;;;;;;;12.58;100.00;101245.00;5032079;28;1894;-74
2023/08/07 03:32:48;;;;;;;;;;;;;;;12.58;100.00;101245.81;5038048;28;1160;-74
2023/08/07 03:35:13;;;;;;;;;;;;;;;12.67;100.00;101244.22;5037571;28;1149;-74
2023/08/07 03:37:38;;;;;;;;;;;;;;;12.80;100.00;101250.06;5043568;28;1324;-74
2023/08/07 03:40:03;;;;;;;;;;;;;;;12.65;100.00;101241.75;5031293;28;1252;-74
2023/08/07 03:42:29;;;;;;;;;;;;;;;12.64;100.00;101245.31;5037194;28;1097;-74
2023/08/07 03:44:54;;;;;;;;;;;;;;;12.59;100.00;101242.25;5041615;28;1094;-74
2023/08/07 03:47:19;;;;;;;;;;;;;;;12.59;100.00;101244.84;5041488;28;1070;-74
2023/08/07 03:49:44;;;;;;;;;;;;;;;12.54;100.00;101244.41;5042027;28;1898;-73
2023/08/07 03:52:10;;;;;;;;;;;;;;;12.54;100.00;101254.81;5040202;28;1089;-74
2023/08/07 03:54:35;;;;;;;;;;;;;;;12.55;100.00;101256.47;5046537;28;1166;-75
2023/08/07 03:57:00;;;;;;;;;;;;;;;12.49;100.00;101262.19;5036077;28;1007;-74
2023/08/07 03:59:25;;;;;;;;;;;;;;;12.51;100.00;101255.09;5038927;28;1135;-74
2023/08/07 04:01:50;;;;;;;;;;;;;;;12.44;100.00;101248.72;5038581;28;1510;-74
2023/08/07 04:04:16;;;;;;;;;;;;;;;12.39;100.00;101245.69;5043140;28;1106;-74
2023/08/07 04:06:41;;;;;;;;;;;;;;;12.37;100.00;101243.19;5041067;28;1086;-74
2023/08/07 04:09:06;;;;;;;;;;;;;;;12.37;100.00;101247.59;5036221;28;1898;-74
2023/08/07 04:11:33;;;;;;;;;;;;;;;12.38;100.00;101238.81;5030673;28;1174;-75
2023/08/07 04:13:58;;;;;;;;;;;;;;;12.45;100.00;101253.00;5036835;28;1067;-74
2023/08/07 04:16:24;;;;;;;;;;;;;;;12.37;100.00;101253.59;5034413;28;1341;-74
2023/08/07 04:18:49;;;;;;;;;;;;;;;12.34;100.00;101248.69;5038170;28;1071;-74
2023/08/07 04:21:14;;;;;;;;;;;;;;;12.41;100.00;101256.78;5037916;28;1144;-75
2023/08/07 04:23:39;;;;;;;;;;;;;;;12.31;100.00;101253.28;5034921;28;1140;-76
2023/08/07 04:26:04;;;;;;;;;;;;;;;12.31;100.00;101255.91;5040745;28;1087;-75
2023/08/07 04:28:30;;;;;;;;;;;;;;;12.28;100.00;101253.56;5037424;28;1906;-75
2023/08/07 04:30:55;;;;;;;;;;;;;;;12.28;100.00;101248.34;5037732;28;1100;-75
2023/08/07 04:33:20;;;;;;;;;;;;;;;12.30;100.00;101247.25;5038013;28;1114;-75
2023/08/07 04:35:49;;;;;;;;;;;;;;;12.29;100.00;101255.22;5039260;28;1137;-75
2023/08/07 04:38:15;;;;;;;;;;;;;;;12.29;100.00;101260.41;5035497;28;1026;-75
2023/08/07 04:40:43;;;;;;;;;;;;;;;12.32;100.00;101262.75;5040932;28;1076;-75
2023/08/07 04:43:09;;;;;;;;;;;;;;;12.35;100.00;101275.50;5037553;28;1084;-75
2023/08/07 04:45:34;;;;;;;;;;;;;;;12.31;100.00;101268.91;5029662;28;1296;-75
2023/08/07 04:47:59;;;;;;;;;;;;;;;12.29;100.00;101269.03;5036280;28;1163;-74
2023/08/07 04:50:25;;;;;;;;;;;;;;;12.29;100.00;101265.59;5040932;28;1887;-75
2023/08/07 04:52:50;;;;;;;;;;;;;;;12.33;100.00;101266.97;5048874;28;1099;-75
2023/08/07 04:55:15;;;;;;;;;;;;;;;12.33;100.00;101272.19;5037321;28;1083;-75
2023/08/07 04:57:40;;;;;;;;;;;;;;;12.37;100.00;101271.00;5030162;28;946;-75
2023/08/07 05:00:06;;;;;;;;;;;;;;;12.39;100.00;101271.72;5037420;28;1080;-75
2023/08/07 05:02:31;;;;;;;;;;;;;;;12.38;100.00;101275.25;5034946;28;1200;-75
2023/08/07 05:04:56;;;;;;;;;;;;;;;12.37;100.00;101277.03;5039261;28;1130;-75
2023/08/07 05:07:21;;;;;;;;;;;;;;;12.38;100.00;101275.25;5040130;28;1086;-75
2023/08/07 05:09:47;;;;;;;;;;;;;;;12.39;100.00;101282.13;5045363;28;1967;-75
2023/08/07 05:12:12;;;;;;;;;;;;;;;12.40;100.00;101278.56;5038009;28;1122;-76
2023/08/07 05:14:37;;;;;;;;;;;;;;;12.38;100.00;101283.03;5030110;28;1267;-76
2023/08/07 05:17:02;;;;;;;;;;;;;;;12.37;100.00;101284.00;5034729;28;1123;-75
2023/08/07 05:19:27;;;;;;;;;;;;;;;12.39;100.00;101287.31;5037789;28;1164;-76
2023/08/07 05:21:53;;;;;;;;;;;;;;;12.41;100.00;101285.41;5039582;28;1096;-76
2023/08/07 05:24:18;;;;;;;;;;;;;;;12.40;100.00;101294.16;5037614;28;1054;-75
2023/08/07 05:26:43;;;;;;;;;;;;;;;12.42;100.00;101292.25;5045652;28;1152;-75
2023/08/07 05:29:08;;;;;;;;;;;;;;;12.43;100.00;101293.91;5042341;28;1968;-75
2023/08/07 05:31:34;;;;;;;;;;;;;;;12.43;100.00;101291.31;5042207;28;1318;-75
2023/08/07 05:33:59;;;;;;;;;;;;;;;12.44;100.00;101306.81;5046662;28;1112;-75
2023/08/07 05:36:24;;;;;;;;;;;;;;;12.44;100.00;101295.53;5042545;28;1105;-75
2023/08/07 05:38:49;;;;;;;;;;;;;;;12.54;100.00;101306.84;5034740;28;946;-76
2023/08/07 05:41:15;;;;;;;;;;;;;;;12.52;100.00;101295.75;5036138;28;1277;-75
2023/08/07 05:43:40;;;;;;;;;;;;;;;12.51;100.00;101301.91;5043209;28;1114;-75
2023/08/07 05:46:05;;;;;;;;;;;;;;;12.55;100.00;101303.31;5040876;28;1180;-76
2023/08/07 05:48:30;;;;;;;;;;;;;;;12.55;100.00;101313.72;5050687;28;1894;-75
2023/08/07 05:50:55;;;;;;;;;;;;;;;12.53;100.00;101310.41;5050301;28;1159;-76
2023/08/07 05:53:22;;;;;;;;;;;;;;;12.57;100.00;101326.63;5048318;28;1239;-75
2023/08/07 05:55:47;;;;;;;;;;;;;;;12.60;100.00;101324.56;5039930;28;1145;-74
2023/08/07 05:58:12;;;;;;;;;;;;;;;12.59;100.00;101324.69;5030249;28;1123;-75
2023/08/07 06:00:37;;;;;;;;;;;;;;;12.63;100.00;101326.94;5030949;28;1116;-75
2023/08/07 06:03:03;;;;;;;;;;;;;;;12.60;100.00;101326.34;5043853;28;1164;-75
2023/08/07 06:05:28;;;;;;;;;;;;;;;12.64;100.00;101328.56;5031166;28;1136;-75
2023/08/07 06:07:53;;;;;;;;;;;;;;;12.65;100.00;101324.19;5031874;28;1100;-76
2023/08/07 06:10:18;;;;;;;;;;;;;;;12.68;100.00;101329.97;5032566;28;1961;-75
2023/08/07 06:12:43;;;;;;;;;;;;;;;12.67;100.00;101327.47;5033692;28;1127;-75
2023/08/07 06:15:09;;;;;;;;;;;;;;;12.67;100.00;101337.91;5036525;28;1081;-76
2023/08/07 06:17:34;;;;;;;;;;;;;;;12.68;100.00;101339.56;5035038;28;1400;-74
2023/08/07 06:19:59;;;;;;;;;;;;;;;12.72;100.00;101336.56;5043290;28;1095;-75
2023/08/07 06:22:25;;;;;;;;;;;;;;;12.71;100.00;101340.13;5040929;28;1097;-75
2023/08/07 06:24:50;;;;;;;;;;;;;;;12.77;100.00;101349.22;5043892;28;1191;-75
2023/08/07 06:27:15;;;;;;;;;;;;;;;12.77;100.00;101350.03;5041474;28;1088;-75
2023/08/07 06:29:40;;;;;;;;;;;;;;;12.82;100.00;101341.03;5041997;28;1894;-75
2023/08/07 06:32:06;;;;;;;;;;;;;;;12.86;100.00;101353.66;5040407;28;1143;-75
2023/08/07 06:34:31;;;;;;;;;;;;;;;12.81;100.00;101355.00;5041072;28;1121;-75
2023/08/07 06:36:56;;;;;;;;;;;;;;;12.81;100.00;101355.00;5041132;28;1096;-75
2023/08/07 06:39:21;;;;;;;;;;;;;;;12.84;100.00;101365.13;5043747;28;1068;-75
2023/08/07 06:41:46;;;;;;;;;;;;;;;12.86;100.00;101371.06;5048007;28;1174;-75
2023/08/07 06:44:12;;;;;;;;;;;;;;;12.83;100.00;101373.91;5043552;28;1115;-75
2023/08/07 06:46:37;;;;;;;;;;;;;;;12.81;100.00;101366.22;5046201;28;1077;-75
2023/08/07 06:49:02;;;;;;;;;;;;;;;12.85;100.00;101369.41;5048097;28;1960;-75
2023/08/07 06:51:27;;;;;;;;;;;;;;;12.95;100.00;101383.31;5033548;28;999;-74
2023/08/07 06:53:52;;;;;;;;;;;;;;;12.88;100.00;101385.59;5045707;28;1014;-74
2023/08/07 06:56:18;;;;;;;;;;;;;;;12.91;100.00;101392.34;5038434;28;1184;-75
2023/08/07 06:58:43;;;;;;;;;;;;;;;12.96;100.00;101387.56;5043398;28;2226;-75
2023/08/07 07:01:08;;;;;;;;;;;;;;;12.99;100.00;101395.13;5028581;28;1105;-75
2023/08/07 07:03:33;;;;;;;;;;;;;;;13.09;100.00;101375.19;5033446;28;1060;-75
2023/08/07 07:05:59;;;;;;;;;;;;;;;13.18;100.00;101382.22;5030420;28;2422;-74
2023/08/07 07:08:24;;;;;;;;;;;;;;;13.25;100.00;101391.22;5035369;28;1967;-75
2023/08/07 07:10:49;;;;;;;;;;;;;;;13.25;100.00;101396.44;5042330;28;1084;-74
2023/08/07 07:13:14;;;;;;;;;;;;;;;13.36;100.00;101402.50;5041893;28;1236;-75
2023/08/07 07:15:39;;;;;;;;;;;;;;;13.24;100.00;101410.38;5034543;28;1140;-75
2023/08/07 07:18:05;;;;;;;;;;;;;;;13.22;100.00;101416.69;5044999;28;1610;-75
2023/08/07 07:20:30;;;;;;;;;;;;;;;13.25;100.00;101417.28;5041260;28;1156;-75
2023/08/07 07:22:56;;;;;;;;;;;;;;;13.31;100.00;101417.72;5039618;28;1141;-75
2023/08/07 07:25:21;;;;;;;;;;;;;;;13.42;100.00;101433.25;5038334;28;1068;-75
2023/08/07 07:27:46;;;;;;;;;;;;;;;13.63;100.00;101426.22;5036963;28;1100;-75
2023/08/07 07:30:11;;;;;;;;;;;;;;;13.68;100.00;101429.28;5041164;28;1957;-75
2023/08/07 07:32:37;;;;;;;;;;;;;;;13.78;100.00;101430.16;5041236;28;1156;-75
2023/08/07 07:35:02;;;;;;;;;;;;;;;13.90;100.00;101432.66;5038627;28;1076;-76
2023/08/07 07:37:27;;;;;;;;;;;;;;;13.85;100.00;101430.44;5033988;28;1033;-75
2023/08/07 07:39:52;;;;;;;;;;;;;;;13.79;100.00;101429.19;5041668;28;1067;-75
2023/08/07 07:42:18;;;;;;;;;;;;;;;13.80;100.00;101428.22;5038219;28;1164;-74
2023/08/07 07:44:43;;;;;;;;;;;;;;;13.87;100.00;101443.34;5041188;28;1118;-75
2023/08/07 07:47:08;;;;;;;;;;;;;;;13.84;100.00;101446.22;5037046;28;1145;-75
2023/08/07 07:49:33;;;;;;;;;;;;;;;13.92;100.00;101431.56;5044538;28;1963;-75
2023/08/07 07:51:59;;;;;;;;;;;;;;;13.85;100.00;101450.50;5043105;28;1149;-75
2023/08/07 07:54:24;;;;;;;;;;;;;;;13.78;100.00;101451.00;5035036;28;1084;-75
2023/08/07 07:56:49;;;;;;;;;;;;;;;13.74;100.00;101447.00;5041046;28;1131;-75
2023/08/07 07:59:15;;;;;;;;;;;;;;;13.79;100.00;101451.84;5042342;28;1077;-75
2023/08/07 08:01:40;;;;;;;;;;;;;;;13.66;100.00;101457.28;5038929;28;1006;-74
2023/08/07 08:04:06;;;;;;;;;;;;;;;13.71;100.00;101465.53;5046552;28;1171;-75
2023/08/07 08:06:32;;;;;;;;;;;;;;;13.70;100.00;101463.84;5046937;28;1048;-74
2023/08/07 08:08:57;;;;;;;;;;;;;;;13.64;100.00;101469.59;5033415;28;1890;-74
2023/08/07 08:11:22;;;;;;;;;;;;;;;13.72;100.00;101468.97;5032488;28;1166;-74
2023/08/07 08:13:47;;;;;;;;;;;;;;;13.78;100.00;101471.88;5041690;28;1126;-75
2023/08/07 08:16:13;;;;;;;;;;;;;;;13.72;100.00;101472.38;5034208;28;1177;-76
2023/08/07 08:18:38;;;;;;;;;;;;;;;13.90;100.00;101469.19;5039540;28;1110;-74
2023/08/07 08:21:03;;;;;;;;;;;;;;;14.01;100.00;101476.91;5033226;28;1099;-75
2023/08/07 08:23:28;;;;;;;;;;;;;;;14.16;100.00;101480.78;5035169;28;1116;-74
2023/08/07 08:25:54;;;;;;;;;;;;;;;14.43;100.00;101481.97;5032582;28;1160;-75
2023/08/07 08:28:19;;;;;;;;;;;;;;;14.41;100.00;101483.91;5037323;28;1084;-74
2023/08/07 08:30:44;;;;;;;;;;;;;;;14.46;99.86;101476.50;5033630;28;1984;-74
2023/08/07 08:33:12;;;;;;;;;;;;;;;14.63;98.21;101473.25;5035999;28;1155;-74
2023/08/07 08:35:37;;;;;;;;;;;;;;;14.60;100.00;101489.19;5038014;28;1082;-74
2023/08/07 08:38:03;;;;;;;;;;;;;;;14.82;98.31;101475.88;5042174;28;1170;-74
2023/08/07 08:40:29;;;;;;;;;;;;;;;14.79;99.11;101483.97;5036031;28;1107;-74
2023/08/07 08:42:57;;;;;;;;;;;;;;;14.83;99.51;101480.13;5036140;28;1058;-74
2023/08/07 08:45:24;;;;;;;;;;;;;;;15.03;98.45;101491.44;5038620;28;1183;-74
2023/08/07 08:47:51;;;;;;;;;;;;;;;15.06;95.61;101498.97;5033427;28;1145;-74
2023/08/07 08:50:16;;;;;;;;;;;;;;;15.10;94.54;101491.69;5040422;28;1906;-74
2023/08/07 08:52:42;;;;;;;;;;;;;;;15.15;94.88;101494.72;5035971;28;1110;-74
2023/08/07 08:55:08;;;;;;;;;;;;;;;15.31;91.18;101492.38;5038728;28;1093;-74
2023/08/07 08:57:34;;;;;;;;;;;;;;;15.34;92.32;101489.47;5039518;28;1119;-73
2023/08/07 09:00:00;;;;;;;;;;;;;;;15.40;93.45;101501.97;5049101;28;1265;-73
2023/08/07 09:02:26;;;;;;;;;;;;;;;15.63;90.98;101493.84;5046949;28;1199;-74
2023/08/07 09:04:51;;;;;;;;;;;;;;;15.63;89.34;101504.31;5048335;28;1019;-74
2023/08/07 09:07:18;;;;;;;;;;;;;;;15.66;87.77;101506.66;5052042;28;1131;-73
2023/08/07 09:09:44;;;;;;;;;;;;;;;15.74;88.92;101511.16;5043092;28;1977;-75
2023/08/07 09:12:13;;;;;;;;;;;;;;;15.83;86.11;101505.91;5044660;28;1074;-74
2023/08/07 09:14:41;;;;;;;;;;;;;;;15.77;81.56;101522.19;5044433;28;1072;-74
2023/08/07 09:17:07;;;;;;;;;;;;;;;15.77;83.60;101511.72;5036218;28;1016;-74
2023/08/07 09:19:32;;;;;;;;;;;;;;;15.78;84.57;101512.53;5038382;28;1315;-74
2023/08/07 09:21:58;;;;;;;;;;;;;;;15.96;81.66;101515.22;5054246;28;999;-72
2023/08/07 09:24:23;;;;;;;;;;;;;;;15.91;78.97;101524.31;5045371;28;1143;-74
2023/08/07 09:26:50;;;;;;;;;;;;;;;16.04;78.20;101523.16;5039903;28;1267;-74
2023/08/07 09:29:16;;;;;;;;;;;;;;;16.09;78.00;101519.16;5042300;28;1977;-74
2023/08/07 09:31:45;;;;;;;;;;;;;;;16.13;78.86;101523.13;5046282;28;1065;-74
2023/08/07 09:34:10;;;;;;;;;;;;;;;16.33;77.51;101518.63;5043741;28;1096;-73
2023/08/07 09:36:35;;;;;;;;;;;;;;;16.34;78.39;101525.50;5040773;28;1143;-73
2023/08/07 09:39:02;;;;;;;;;;;;;;;16.24;78.59;101534.41;5038242;28;1101;-74
2023/08/07 09:41:28;;;;;;;;;;;;;;;16.16;77.10;101532.47;5044802;28;1091;-76
2023/08/07 09:43:53;;;;;;;;;;;;;;;15.98;76.33;101536.81;5040091;28;1073;-74
2023/08/07 09:46:19;;;;;;;;;;;;;;;15.99;75.80;101543.69;5044101;28;1067;-74
2023/08/07 09:48:44;;;;;;;;;;;;;;;15.90;73.86;101554.06;5044183;28;1929;-74
2023/08/07 09:51:10;;;;;;;;;;;;;;;15.70;76.84;101547.22;5042002;28;1155;-74
2023/08/07 09:53:35;;;;;;;;;;;;;;;15.69;77.75;101550.81;5038513;28;1288;-73
2023/08/07 09:56:01;;;;;;;;;;;;;;;15.72;77.50;101554.94;5042509;28;1065;-73
2023/08/07 09:58:27;;;;;;;;;;;;;;;15.67;78.61;101560.59;5041896;28;1064;-74
2023/08/07 10:00:53;;;;;;;;;;;;;;;15.71;78.75;101568.97;5048528;28;1100;-74
2023/08/07 10:03:19;;;;;;;;;;;;;;;15.64;78.69;101573.94;5044147;28;1085;-74
2023/08/07 10:05:44;;;;;;;;;;;;;;;15.57;79.88;101588.50;5042881;28;1002;-74
2023/08/07 10:08:10;;;;;;;;;;;;;;;15.40;81.35;101583.00;5043097;28;1149;-74
2023/08/07 10:10:36;;;;;;;;;;;;;;;15.32;81.47;101582.88;5040192;28;1969;-73
2023/08/07 10:13:02;;;;;;;;;;;;;;;15.36;81.36;101581.63;5046717;28;1098;-73
2023/08/07 10:15:28;;;;;;;;;;;;;;;15.33;83.12;101575.88;5048734;28;1431;-74
2023/08/07 10:17:53;;;;;;;;;;;;;;;15.45;83.24;101573.94;5037595;28;1114;-74
2023/08/07 10:20:20;;;;;;;;;;;;;;;15.57;82.38;101580.66;5051714;28;1161;-74
2023/08/07 10:22:46;;;;;;;;;;;;;;;15.66;83.91;101577.25;5032305;28;1032;-74
2023/08/07 10:25:11;;;;;;;;;;;;;;;15.82;82.51;101577.47;5046910;28;1295;-74
2023/08/07 10:27:38;;;;;;;;;;;;;;;15.93;83.96;101574.69;5042438;28;1128;-74
2023/08/07 10:30:05;;;;;;;;;;;;;;;16.15;82.03;101570.91;5050206;28;1891;-73
2023/08/07 10:32:31;;;;;;;;;;;;;;;16.19;82.24;101579.31;5036204;28;1291;-74
2023/08/07 10:34:57;;;;;;;;;;;;;;;16.33;79.30;101581.44;5041245;28;1055;-75
2023/08/07 10:37:32;;;;;;;;;;;;;;;16.37;80.34;101576.75;5041321;28;1127;-75
2023/08/07 10:40:01;;;;;;;;;;;;;;;16.39;78.07;101575.63;5032791;28;1132;-74
2023/08/07 10:42:26;;;;;;;;;;;;;;;16.42;80.39;101575.38;5036282;28;1104;-74
2023/08/07 10:44:51;;;;;;;;;;;;;;;16.55;76.95;101575.03;5040021;28;1019;-74
2023/08/07 10:47:32;;;;;;;;;;;;;;;16.51;77.36;101578.06;5039378;28;1127;-74
2023/08/07 10:49:57;;;;;;;;;;;;;;;16.41;76.08;101578.13;5039193;28;1964;-75
2023/08/07 10:52:24;;;;;;;;;;;;;;;16.31;77.01;101588.63;5036901;28;998;-74
2023/08/07 10:54:50;;;;;;;;;;;;;;;16.28;75.63;101595.94;5037636;28;1030;-75
2023/08/07 10:57:16;;;;;;;;;;;;;;;16.25;75.66;101589.22;5040793;28;1143;-75
2023/08/07 10:59:51;;;;;;;;;;;;;;;16.29;74.61;101597.63;5038096;28;1084;-75
2023/08/07 11:02:36;;;;;;;;;;;;;;;16.28;75.29;101598.56;5038339;28;1081;-74
2023/08/07 11:05:01;;;;;;;;;;;;;;;16.26;76.23;101603.94;5039446;28;1011;-75
2023/08/07 11:07:28;;;;;;;;;;;;;;;16.26;75.81;101606.56;5044269;28;1244;-75
2023/08/07 11:09:56;;;;;;;;;;;;;;;16.19;73.59;101613.34;5042357;28;1965;-75
2023/08/07 11:12:25;;;;;;;;;;;;;;;16.17;75.52;101612.66;5045981;28;1086;-75
2023/08/07 11:14:52;;;;;;;;;;;;;;;16.17;73.71;101607.41;5043030;28;1013;-75
2023/08/07 11:17:17;;;;;;;;;;;;;;;16.17;76.02;101597.78;5040588;28;1077;-75
2023/08/07 11:19:43;;;;;;;;;;;;;;;16.25;74.92;101610.16;5039662;28;1353;-75
2023/08/07 11:22:08;;;;;;;;;;;;;;;16.38;74.68;101610.66;5037254;28;1296;-74
2023/08/07 11:24:33;;;;;;;;;;;;;;;16.38;74.43;101620.31;5034514;28;1010;-76
2023/08/07 11:26:58;;;;;;;;;;;;;;;16.43;74.54;101618.91;5031526;28;1097;-74
2023/08/07 11:29:24;;;;;;;;;;;;;;;16.44;74.85;101615.31;5039232;28;1945;-75
2023/08/07 11:31:50;;;;;;;;;;;;;;;16.52;74.59;101621.66;5030503;28;1060;-75
2023/08/07 11:34:19;;;;;;;;;;;;;;;16.49;75.42;101629.78;5036564;28;1107;-75
2023/08/07 11:36:44;;;;;;;;;;;;;;;16.49;74.98;101612.25;5042060;28;1395;-75
2023/08/07 11:39:10;;;;;;;;;;;;;;;16.67;72.75;101614.94;5037609;28;1096;-75
2023/08/07 11:41:35;;;;;;;;;;;;;;;16.56;73.21;101625.59;5030572;28;1063;-75
2023/08/07 11:44:00;;;;;;;;;;;;;;;16.59;73.15;101623.53;5036429;28;1062;-75
2023/08/07 11:46:26;;;;;;;;;;;;;;;16.65;75.18;101620.34;5033508;28;1076;-74
2023/08/07 11:48:51;;;;;;;;;;;;;;;16.76;74.10;101618.53;5029364;28;1890;-75
2023/08/07 11:51:17;;;;;;;;;;;;;;;16.77;74.43;101605.28;5042293;28;1043;-75
2023/08/07 11:53:42;;;;;;;;;;;;;;;16.90;73.16;101610.16;5038265;28;1064;-75
2023/08/07 11:56:14;;;;;;;;;;;;;;;17.01;73.03;101606.50;5037300;28;1077;-75
2023/08/07 11:58:45;;;;;;;;;;;;;;;17.00;73.04;101613.53;5039086;28;1064;-76
2023/08/07 12:01:12;;;;;;;;;;;;;;;16.95;71.53;101603.50;5034005;28;1065;-75
2023/08/07 12:03:38;;;;;;;;;;;;;;;17.01;69.71;101614.38;5035225;28;1099;-76
2023/08/07 12:06:04;;;;;;;;;;;;;;;16.99;70.32;101604.88;5040490;28;1172;-74
2023/08/07 12:08:33;;;;;;;;;;;;;;;16.99;70.83;101609.28;5036532;28;1317;-75
2023/08/07 12:11:00;;;;;;;;;;;;;;;17.07;71.39;101613.78;5040499;28;1240;-75
2023/08/07 12:13:29;;;;;;;;;;;;;;;17.14;71.08;101617.44;5045914;28;1188;-75
2023/08/07 12:15:54;;;;;;;;;;;;;;;17.09;70.41;101611.81;5035489;28;1150;-76
2023/08/07 12:18:23;;;;;;;;;;;;;;;17.09;69.34;101614.44;5039289;28;1104;-75
2023/08/07 12:20:49;;;;;;;;;;;;;;;16.99;68.42;101610.09;5043504;28;1079;-75
2023/08/07 12:23:16;;;;;;;;;;;;;;;17.06;67.72;101610.34;5044634;28;1091;-75
2023/08/07 12:25:41;;;;;;;;;;;;;;;17.23;69.14;101609.53;5045277;28;1613;-75
2023/08/07 12:28:07;;;;;;;;;;;;;;;17.42;68.48;101605.91;5035809;28;1386;-76
2023/08/07 12:30:34;;;;;;;;;;;;;;;17.52;64.05;101611.91;5037754;28;1993;-75
2023/08/07 12:32:59;;;;;;;;;;;;;;;17.62;66.29;101611.00;5032269;28;994;-75